Terminal Aerodrome Forecast
Issued by NWS

Home | Current Version | Previous Version | Text Only | Print | Product List | Glossary On
Versions: 1 2 3 4 5 6 7 8 9 10 11 12 13 14 15 16 17 18 19
000
FTUS43 KBIS 301120
TAFJMS
TAF
KJMS 301120Z 3012/3112 18004KT P6SM FEW080
     FM301800 15010KT P6SM SCT120
     FM302300 14011G20KT P6SM VCTS BKN070CB
      TEMPO 3100/3102 2SM +TSRA BKN040CB
     FM310500 33008KT P6SM BKN015
     FM311000 29009KT P6SM BKN008=

USA.gov is the U.S. government's official web portal to all federal, state and local government web resources and services.